KELA

Eagle Lake Airport

Eagle Lake, Texas, USA
METAR KELA 140435Z AUTO 30004KT 10SM CLR 00/M01 A3053 RMK AO2 T00011008
Observed Flight Rules
Nov-14 @ 04:35 UTC (29 minutes ago) Visual Flight Rules
Wind Visibility Clouds
300° at 4 knots 10 miles
  • Clear skies
Temperatures Readings
Current 0°C / 32°F
Dewpoint -1°C / 30°F
Humidity 93%
Altimeter 30.53" Hg
Pressure 1034 hPa
Elevation 56
METAR KELA 140435Z AUTO 30004KT 10SM CLR 00/M01 A3053 RMK AO2 T00011008
Observed Flight Rules
Nov-14 @ 04:35 UTC
(29 minutes ago)
VFR
Wind Visibility
300° at 4 knots 10 miles
Clouds
  • Clear skies
Temperature Dewpoint
0°C / 32°F -1°C / 30°F
Humidity Altimeter Pressure
93% 30.53" Hg 1034 hPa